Nearby METAR Reports


RPLC - Angeles/Pampanga, Philippines
Distance from station: S 166km
Updated: Mon, 21-Sep-2020 1:00am PST
Mostly cloudy
Mostly cloudy
 Wind from ESE
Wind: ESE 7 km/h
Temperature: 26°C
Dew Point: 25°C
Humidity: 94%
Barometer: 1010 hPa
Clouds: Mostly cloudy
Visibility: 8 km
Cloud details: Partly cloudy 610 m
Mostly cloudy 9144 m
2020/09/20 17:00 RPLC 201700Z 12004KT 8000 SCT020 BKN300 26/25 Q1010 NOSIG RMK A2983
RPLI - Laoag Intl Airport, Philippines
Distance from station: N 171km
Updated: Sun, 20-Sep-2020 11:00pm PST
NOT Current
Few Clouds
Few Clouds
 Wind from varies
Wind: varies 4 km/h
Temperature: 27°C
Heat Index: 32°C
Dew Point: 26°C
Humidity: 94%
Barometer: 1010 hPa
Clouds: Few Clouds
Visibility: 10 km
Cloud details: Few Clouds 549 m
2020/09/20 15:00 RPLI 201500Z VRB02KT 9999 FEW018 27/26 Q1010 NOSIG RMK A2983
 
RPLB - Olongapo/Subic, Philippines
Distance from station: S 205km
Updated: Mon, 21-Sep-2020 1:00am PST
Few Clouds
Few Clouds
 Wind from varies
Wind: varies 4 km/h
Temperature: 27°C
Heat Index: 31°C
Dew Point: 25°C
Humidity: 89%
Barometer: 1009 hPa
Clouds: Few Clouds
Visibility: 10 km
Cloud details: Few Clouds 549 m
Few Clouds 610 m
2020/09/20 17:00 RPLB 201700Z VRB02KT 9999 FEW018CB FEW020 27/25 Q1009 RMK A2980 FRQNT LTG S W
RPLL - Ninoy Aquino Intl Airport, Philippines
Distance from station: SSE 247km
Updated: Mon, 21-Sep-2020 1:00am PST
Few Clouds
Few Clouds
 Wind from calm
Wind: Calm
Temperature: 28°C
Heat Index: 32°C
Dew Point: 24°C
Humidity: 79%
Barometer: 1008 hPa
Clouds: Few Clouds
Visibility: 10 km
Cloud details: Few Clouds 762 m
2020/09/20 17:00 RPLL 201700Z 00000KT 9999 FEW025 28/24 Q1008 NOSIG RMK A2977